Time;durP1;ratioP1;P1;durP2;ratioP2;P2;SDS_P1;SDS_P2;PMS_P1;PMS_P2;Temp;Humidity;BMP_temperature;BMP_pressure;BME280_temperature;BME280_humidity;BME280_pressure;Samples;Min_cycle;Max_cycle;Signal;HPM_P1;HPM_P2
2022/03/15 00:01:38;;;;;;;1.23;1.10;;;;;;;-141.59;100.00;61776.25;5057407;28;20283;-86
2022/03/15 00:04:06;;;;;;;1.10;1.00;;;;;;;-141.59;100.00;61776.25;5034943;28;20210;-85
2022/03/15 00:06:36;;;;;;;1.20;1.10;;;;;;;-141.59;100.00;61776.25;5028527;28;20296;-85
2022/03/15 00:09:03;;;;;;;1.10;0.90;;;;;;;-141.59;100.00;61776.25;5051641;28;20218;-85
2022/03/15 00:11:34;;;;;;;1.00;0.90;;;;;;;10.15;100.00;61776.25;5053155;28;20222;-85
2022/03/15 00:14:04;;;;;;;0.80;0.80;;;;;;;11.35;100.00;61776.25;5035191;28;20213;-85
2022/03/15 00:16:31;;;;;;;0.80;0.80;;;;;;;-141.59;100.00;61776.25;5039769;28;20210;-86
2022/03/15 00:19:00;;;;;;;0.90;0.90;;;;;;;-141.59;100.00;61776.25;5037106;28;20288;-84
2022/03/15 00:21:28;;;;;;;1.43;0.87;;;;;;;-141.59;100.00;61776.25;5035328;28;20211;-86
2022/03/15 00:23:55;;;;;;;0.90;0.90;;;;;;;-141.59;100.00;61776.25;5038603;28;20249;-86
2022/03/15 00:26:22;;;;;;;0.90;0.90;;;;;;;-141.59;100.00;61776.25;5034219;28;20204;-85
2022/03/15 00:28:49;;;;;;;0.90;0.90;;;;;;;-141.59;100.00;61776.25;5034686;28;20339;-86
2022/03/15 00:31:16;;;;;;;1.10;1.00;;;;;;;-141.59;100.00;61776.25;5051973;28;20304;-84
2022/03/15 00:33:43;;;;;;;1.00;1.00;;;;;;;-141.59;100.00;61776.25;5033692;28;20296;-86
2022/03/15 00:36:12;;;;;;;0.77;0.77;;;;;;;-141.59;100.00;61776.25;5028499;28;20213;-86
2022/03/15 00:38:41;;;;;;;0.90;0.90;;;;;;;-141.59;100.00;61776.25;5048074;28;20297;-86
2022/03/15 00:41:10;;;;;;;2.00;0.90;;;;;;;-141.59;100.00;61776.25;5036314;28;20224;-87
2022/03/15 00:43:38;;;;;;;0.77;0.77;;;;;;;-141.59;100.00;61776.25;5030752;28;20213;-86
2022/03/15 00:46:05;;;;;;;0.60;0.60;;;;;;;-141.59;100.00;61776.25;5041191;28;20186;-86
2022/03/15 00:48:33;;;;;;;0.70;0.70;;;;;;;-141.59;100.00;61776.25;5033581;28;20232;-84
2022/03/15 00:51:00;;;;;;;0.80;0.80;;;;;;;-141.59;100.00;61776.25;5038555;28;20213;-86
2022/03/15 00:53:28;;;;;;;0.87;0.87;;;;;;;-141.59;100.00;61776.25;5031454;28;20297;-86
2022/03/15 00:55:55;;;;;;;0.80;0.80;;;;;;;-141.59;100.00;61776.25;5032070;28;20205;-85
2022/03/15 00:58:24;;;;;;;0.70;0.70;;;;;;;-141.59;100.00;61776.25;5035232;28;20198;-85
2022/03/15 01:00:51;;;;;;;0.70;0.70;;;;;;;-141.59;100.00;61776.25;5047231;28;20198;-86
2022/03/15 01:03:18;;;;;;;0.80;0.80;;;;;;;-141.59;100.00;61776.25;5033336;28;20208;-85
2022/03/15 01:05:46;;;;;;;1.10;0.77;;;;;;;-141.59;100.00;61776.25;5046421;28;20206;-86
2022/03/15 01:08:14;;;;;;;0.70;0.70;;;;;;;-141.59;100.00;61776.25;5044885;28;20265;-84
2022/03/15 01:10:43;;;;;;;0.77;0.77;;;;;;;-141.59;100.00;61776.25;5035478;28;20210;-86
2022/03/15 01:13:11;;;;;;;0.80;0.80;;;;;;;-141.59;100.00;61776.25;5044246;28;20203;-85
2022/03/15 01:15:41;;;;;;;0.90;0.70;;;;;;;-141.59;100.00;61776.25;5038268;28;20214;-86
2022/03/15 01:18:08;;;;;;;0.60;0.60;;;;;;;-141.59;100.00;61776.25;5032297;28;20217;-86
2022/03/15 01:20:36;;;;;;;1.03;0.77;;;;;;;-141.59;100.00;61776.25;5050206;28;20210;-85
2022/03/15 01:23:03;;;;;;;0.63;0.63;;;;;;;-141.59;100.00;61776.25;5030892;28;20222;-86
2022/03/15 01:25:30;;;;;;;0.80;0.80;;;;;;;-141.59;100.00;61776.25;5031001;28;20233;-86
2022/03/15 01:27:59;;;;;;;0.60;0.60;;;;;;;-141.59;100.00;61776.25;5033691;28;20228;-85
2022/03/15 01:30:26;;;;;;;0.63;0.63;;;;;;;-141.59;100.00;61776.25;5032668;28;20230;-86
2022/03/15 01:32:53;;;;;;;0.70;0.70;;;;;;;-141.59;100.00;61776.25;5031723;28;20217;-86
2022/03/15 01:35:20;;;;;;;0.63;0.63;;;;;;;-141.59;100.00;61776.25;5029065;28;20283;-86
2022/03/15 01:37:47;;;;;;;0.70;0.70;;;;;;;-141.59;100.00;61776.25;5029997;28;20305;-86
2022/03/15 01:40:15;;;;;;;2.03;0.80;;;;;;;-141.59;100.00;61776.25;5037921;28;20238;-86
2022/03/15 01:42:44;;;;;;;0.60;0.60;;;;;;;-141.59;100.00;61776.25;5031982;28;20339;-87
2022/03/15 01:45:12;;;;;;;0.60;0.60;;;;;;;-141.59;100.00;61776.25;5033082;28;20237;-85
2022/03/15 01:47:42;;;;;;;0.80;0.80;;;;;;;-141.59;100.00;61776.25;5042089;28;20256;-85
2022/03/15 01:50:10;;;;;;;0.60;0.60;;;;;;;-141.59;100.00;61776.25;5029736;28;20206;-87
2022/03/15 01:52:41;;;;;;;0.60;0.60;;;;;;;-141.59;100.00;61776.25;5028217;28;20222;-85
2022/03/15 01:55:08;;;;;;;0.60;0.60;;;;;;;-141.59;100.00;61776.25;5044152;28;20202;-86
2022/03/15 01:57:35;;;;;;;0.50;0.50;;;;;;;-141.59;100.00;61776.25;5027677;28;20206;-87
2022/03/15 02:00:04;;;;;;;0.57;0.57;;;;;;;-141.59;100.00;61776.25;5032714;28;20207;-85
2022/03/15 02:02:33;;;;;;;0.60;0.60;;;;;;;-141.59;100.00;61776.25;5043260;28;20201;-83
2022/03/15 02:05:01;;;;;;;0.60;0.60;;;;;;;-141.59;100.00;61776.25;5045774;28;20198;-84
2022/03/15 02:07:28;;;;;;;0.50;0.50;;;;;;;-141.59;100.00;61776.25;5026751;28;20224;-87
2022/03/15 02:09:55;;;;;;;0.70;0.67;;;;;;;-141.59;100.00;61776.25;5050521;28;20293;-85
2022/03/15 02:12:22;;;;;;;0.50;0.50;;;;;;;-141.59;100.00;61776.25;5027908;28;20230;-86
2022/03/15 02:14:49;;;;;;;0.50;0.50;;;;;;;-141.59;100.00;61776.25;5031347;28;20308;-86
2022/03/15 02:17:16;;;;;;;0.60;0.60;;;;;;;-141.59;100.00;61776.25;5022409;28;20209;-85
2022/03/15 02:19:45;;;;;;;0.50;0.50;;;;;;;-141.59;100.00;61776.25;5051420;28;20222;-86
2022/03/15 02:22:14;;;;;;;0.60;0.60;;;;;;;-141.59;100.00;61776.25;5053234;28;20194;-86
2022/03/15 02:24:42;;;;;;;0.50;0.50;;;;;;;-141.59;100.00;61776.25;5050127;28;20232;-84
2022/03/15 02:27:12;;;;;;;0.50;0.50;;;;;;;-141.59;100.00;61776.25;5052085;28;20224;-86
2022/03/15 02:29:39;;;;;;;0.77;0.77;;;;;;;-141.59;100.00;61776.25;5034721;28;20210;-86
2022/03/15 02:32:07;;;;;;;0.50;0.50;;;;;;;-141.59;100.00;61776.25;5034323;28;20222;-85
2022/03/15 02:34:35;;;;;;;0.63;0.57;;;;;;;-141.59;100.00;61776.25;5030868;28;20264;-85
2022/03/15 02:37:02;;;;;;;0.50;0.50;;;;;;;-141.59;100.00;61776.25;5050688;28;20206;-86
2022/03/15 02:39:30;;;;;;;0.50;0.50;;;;;;;-141.59;100.00;61776.25;5042420;28;20218;-85
2022/03/15 02:41:58;;;;;;;0.50;0.50;;;;;;;-141.59;100.00;61776.25;5030694;28;20266;-86
2022/03/15 02:44:26;;;;;;;1.23;0.60;;;;;;;-141.59;100.00;61776.25;5047530;28;20237;-85
2022/03/15 02:46:54;;;;;;;0.50;0.50;;;;;;;-141.59;100.00;61776.25;5038482;28;20261;-85
2022/03/15 02:49:21;;;;;;;0.67;0.67;;;;;;;-141.59;100.00;61776.25;5029958;28;20396;-86
2022/03/15 02:51:48;;;;;;;0.60;0.60;;;;;;;-141.59;100.00;61776.25;5044521;28;20264;-86
2022/03/15 02:54:17;;;;;;;0.50;0.50;;;;;;;-141.59;100.00;61776.25;5030605;28;20198;-85
2022/03/15 02:56:47;;;;;;;1.60;1.37;;;;;;;-141.59;100.00;61776.25;5037760;28;20213;-84
2022/03/15 02:59:15;;;;;;;2.50;1.97;;;;;;;-141.59;100.00;61776.25;5020819;28;20237;-85
2022/03/15 03:01:42;;;;;;;3.27;2.80;;;;;;;-141.59;100.00;61776.25;5011612;28;20294;-83
2022/03/15 03:04:10;;;;;;;4.10;3.30;;;;;;;-141.59;100.00;61776.25;5039561;28;20198;-86
2022/03/15 03:06:37;;;;;;;3.20;2.70;;;;;;;-141.59;100.00;61776.25;5016210;28;20318;-85
2022/03/15 03:09:06;;;;;;;1.67;1.53;;;;;;;-141.59;100.00;61776.25;5024991;28;20217;-86
2022/03/15 03:11:33;;;;;;;0.87;0.80;;;;;;;-141.59;100.00;61776.25;5046809;28;20235;-85
2022/03/15 03:14:02;;;;;;;3.57;2.83;;;;;;;-141.59;100.00;61776.25;5021143;28;20202;-86
2022/03/15 03:16:29;;;;;;;2.87;2.30;;;;;;;-141.59;100.00;61776.25;5021199;28;20305;-86
2022/03/15 03:18:58;;;;;;;2.43;1.40;;;;;;;-141.59;100.00;61776.25;5027811;28;20194;-87
2022/03/15 03:21:27;;;;;;;1.87;1.23;;;;;;;-141.59;100.00;61776.25;5046181;28;20229;-85
2022/03/15 03:23:54;;;;;;;3.40;2.77;;;;;;;-141.59;100.00;61776.25;5031248;28;20214;-86
2022/03/15 03:26:23;;;;;;;2.40;1.93;;;;;;;-141.59;100.00;61776.25;5036299;28;20206;-86
2022/03/15 03:28:50;;;;;;;0.50;0.50;;;;;;;-141.59;100.00;61776.25;5024006;28;20230;-86
2022/03/15 03:31:21;;;;;;;1.40;1.30;;;;;;;-141.59;100.00;61776.25;5028434;28;20222;-85
2022/03/15 03:33:49;;;;;;;5.40;3.70;;;;;;;-141.59;100.00;61776.25;5043861;28;20236;-86
2022/03/15 03:36:16;;;;;;;4.40;3.20;;;;;;;-141.59;100.00;61776.25;5026902;28;20202;-86
2022/03/15 03:38:43;;;;;;;2.27;1.90;;;;;;;-141.59;100.00;61776.25;5035484;28;20212;-87
2022/03/15 03:41:10;;;;;;;4.70;2.93;;;;;;;-141.59;100.00;61776.25;5047281;28;20208;-85
2022/03/15 03:43:37;;;;;;;3.50;1.80;;;;;;;-141.59;100.00;61776.25;5036242;28;20238;-84
2022/03/15 03:46:04;;;;;;;4.63;3.40;;;;;;;-141.59;100.00;61776.25;5046508;28;20601;-85
2022/03/15 03:48:33;;;;;;;4.03;3.40;;;;;;;-141.59;100.00;61776.25;5040708;28;20240;-86
2022/03/15 03:51:01;;;;;;;5.40;4.07;;;;;;;-141.59;100.00;61776.25;5034867;28;20209;-86
2022/03/15 03:53:28;;;;;;;4.53;3.70;;;;;;;-141.59;100.00;61776.25;5039585;28;20237;-85
2022/03/15 03:55:55;;;;;;;6.27;3.90;;;;;;;-141.59;100.00;61776.25;5030591;28;20309;-85
2022/03/15 03:58:22;;;;;;;4.53;3.40;;;;;;;-141.59;100.00;61776.25;5026986;28;20210;-83
2022/03/15 04:00:49;;;;;;;4.90;3.80;;;;;;;-141.59;100.00;61776.25;5037589;28;20206;-85
2022/03/15 04:03:16;;;;;;;5.03;3.80;;;;;;;-141.59;100.00;61776.25;5035339;28;20226;-84
2022/03/15 04:05:45;;;;;;;5.03;3.50;;;;;;;-141.59;100.00;61776.25;5037336;28;20198;-85
2022/03/15 04:08:14;;;;;;;6.27;3.77;;;;;;;-141.59;100.00;61776.25;5036867;28;20202;-85
2022/03/15 04:10:41;;;;;;;6.43;3.60;;;;;;;-141.59;100.00;61776.25;5021652;28;20195;-86
2022/03/15 04:13:10;;;;;;;5.17;3.60;;;;;;;-141.59;100.00;61776.25;5045664;28;20229;-83
2022/03/15 04:15:37;;;;;;;5.03;3.97;;;;;;;-141.59;100.00;61776.25;5035899;28;20215;-85
2022/03/15 04:18:04;;;;;;;11.23;4.20;;;;;;;-141.59;100.00;61776.25;5038015;28;20208;-86
2022/03/15 04:20:32;;;;;;;5.57;4.00;;;;;;;-141.59;100.00;61776.25;5031560;28;20213;-86
2022/03/15 04:23:01;;;;;;;4.63;3.77;;;;;;;-141.59;100.00;61776.25;5047201;28;20212;-85
2022/03/15 04:25:28;;;;;;;5.60;3.90;;;;;;;-141.59;100.00;61776.25;5032200;28;20496;-86
2022/03/15 04:28:00;;;;;;;12.30;4.10;;;;;;;-141.59;100.00;61776.25;5058711;28;20205;-85
2022/03/15 04:30:27;;;;;;;6.50;4.20;;;;;;;-141.59;100.00;61776.25;5036455;28;20216;-85
2022/03/15 04:32:54;;;;;;;5.10;3.90;;;;;;;-141.59;100.00;61776.25;5039276;28;20228;-85
2022/03/15 04:35:22;;;;;;;5.57;4.40;;;;;;;-141.59;100.00;61776.25;5034808;28;20217;-86
2022/03/15 04:37:52;;;;;;;4.30;3.70;;;;;;;-141.59;100.00;61776.25;5038942;28;20211;-85
2022/03/15 04:40:21;;;;;;;6.20;3.63;;;;;;;-141.59;100.00;61776.25;5031669;28;20206;-85
2022/03/15 04:42:49;;;;;;;6.77;3.60;;;;;;;-141.59;100.00;61776.25;5043683;28;20203;-86
2022/03/15 04:45:16;;;;;;;4.40;3.60;;;;;;;-141.59;100.00;61776.25;5034430;28;20319;-86
2022/03/15 04:47:46;;;;;;;6.27;3.60;;;;;;;-141.59;100.00;61776.25;5056345;28;20193;-83
2022/03/15 04:50:13;;;;;;;5.00;3.90;;;;;;;-141.59;100.00;61776.25;5046745;28;20336;-86
2022/03/15 04:52:40;;;;;;;5.87;3.93;;;;;;;-141.59;100.00;61776.25;5049257;28;20222;-85
2022/03/15 04:55:08;;;;;;;6.63;4.27;;;;;;;-141.59;100.00;61776.25;5029780;28;20220;-83
2022/03/15 04:57:36;;;;;;;5.40;3.90;;;;;;;-141.59;100.00;61776.25;5031258;28;20210;-83
2022/03/15 05:00:09;;;;;;;4.57;3.60;;;;;;;-141.59;100.00;61776.25;5032675;28;20206;-86
2022/03/15 05:02:36;;;;;;;5.07;3.60;;;;;;;-141.59;100.00;61776.25;5018865;28;20218;-85
2022/03/15 05:05:06;;;;;;;4.83;4.03;;;;;;;-141.59;100.00;61776.25;5049651;28;20268;-85
2022/03/15 05:07:34;;;;;;;6.13;3.70;;;;;;;-141.59;100.00;61776.25;5056510;28;20256;-86
2022/03/15 05:12:47;;;;;;;7.63;4.10;;;;;;;-141.59;100.00;61776.25;5047617;28;20251;-85
2022/03/15 05:15:14;;;;;;;5.80;3.63;;;;;;;-141.59;100.00;61776.25;5031435;28;20277;-86
2022/03/15 05:17:41;;;;;;;8.60;3.80;;;;;;;-141.59;100.00;61776.25;5031093;28;20280;-86
2022/03/15 05:20:11;;;;;;;5.70;3.60;;;;;;;-141.59;100.00;61776.25;5030788;28;20215;-85
2022/03/15 05:22:38;;;;;;;4.67;3.73;;;;;;;-141.59;100.00;61776.25;5047449;28;20194;-86
2022/03/15 05:25:06;;;;;;;4.93;3.53;;;;;;;-141.59;100.00;61776.25;5037151;28;20210;-86
2022/03/15 05:27:34;;;;;;;5.10;3.73;;;;;;;-141.59;100.00;61776.25;5050770;28;20239;-85
2022/03/15 05:30:04;;;;;;;5.97;3.83;;;;;;;-141.59;100.00;61776.25;5054742;28;20204;-85
2022/03/15 05:32:33;;;;;;;5.77;3.70;;;;;;;-141.59;100.00;61776.25;5048606;28;20229;-86
2022/03/15 05:35:01;;;;;;;4.67;3.80;;;;;;;-141.59;100.00;61776.25;5033102;28;20202;-86
2022/03/15 05:37:29;;;;;;;4.67;3.60;;;;;;;-141.59;100.00;61776.25;5034037;28;20214;-84
2022/03/15 05:39:57;;;;;;;5.10;3.80;;;;;;;-141.59;100.00;61776.25;5035934;28;20199;-86
2022/03/15 05:42:24;;;;;;;5.00;3.50;;;;;;;-141.59;100.00;61776.25;5041145;28;20233;-86
2022/03/15 05:44:51;;;;;;;6.47;4.20;;;;;;;-141.59;100.00;61776.25;5034138;28;20226;-86
2022/03/15 05:47:20;;;;;;;5.07;3.70;;;;;;;-141.59;100.00;61776.25;5026643;28;20259;-84
2022/03/15 05:49:48;;;;;;;7.03;4.03;;;;;;;-141.59;100.00;61776.25;5051329;28;20206;-82
2022/03/15 05:52:15;;;;;;;5.07;3.77;;;;;;;-141.59;100.00;61776.25;5045820;28;20202;-84
2022/03/15 05:54:42;;;;;;;4.80;3.50;;;;;;;-141.59;100.00;61776.25;5026339;28;20202;-85
2022/03/15 05:57:09;;;;;;;4.63;3.43;;;;;;;-141.59;100.00;61776.25;5037755;28;20212;-84
2022/03/15 05:59:36;;;;;;;7.10;3.47;;;;;;;-141.59;100.00;61776.25;5050233;28;20203;-86
2022/03/15 06:02:04;;;;;;;6.20;3.43;;;;;;;-141.59;100.00;61776.25;5043214;28;20202;-85
2022/03/15 06:04:32;;;;;;;5.43;3.87;;;;;;;-141.59;100.00;61776.25;5047817;28;20198;-83
2022/03/15 06:07:00;;;;;;;4.90;3.80;;;;;;;-141.59;100.00;61776.25;5026525;28;20264;-86
2022/03/15 06:09:27;;;;;;;5.77;3.97;;;;;;;-141.59;100.00;61776.25;5025622;28;20232;-85
2022/03/15 06:11:55;;;;;;;5.27;4.10;;;;;;;-141.59;100.00;61776.25;5029027;28;20229;-86
2022/03/15 06:14:22;;;;;;;19.53;12.17;;;;;;;-141.59;100.00;61776.25;5037836;28;20222;-86
2022/03/15 06:16:49;;;;;;;11.40;7.57;;;;;;;-141.59;100.00;61776.25;5030837;28;20209;-86
2022/03/15 06:19:17;;;;;;;7.10;4.13;;;;;;;-141.59;100.00;61776.25;5043202;28;20278;-86
2022/03/15 06:21:45;;;;;;;5.43;3.73;;;;;;;-141.59;100.00;61776.25;5048758;28;20210;-86
2022/03/15 06:24:12;;;;;;;6.83;3.90;;;;;;;-141.59;100.00;61776.25;5026917;28;20233;-84
2022/03/15 06:26:43;;;;;;;7.47;3.97;;;;;;;-141.59;100.00;61776.25;5034702;28;20228;-86
2022/03/15 06:29:11;;;;;;;5.13;3.90;;;;;;;-141.59;100.00;61776.25;5029075;28;20210;-86
2022/03/15 06:31:38;;;;;;;7.27;4.10;;;;;;;-141.59;100.00;61776.25;5041050;28;20209;-86
2022/03/15 06:34:06;;;;;;;4.37;3.67;;;;;;;-141.59;100.00;61776.25;5033358;28;20261;-87
2022/03/15 06:36:34;;;;;;;7.10;4.47;;;;;;;-141.59;100.00;61776.25;5044299;28;20201;-84
2022/03/15 06:39:05;;;;;;;6.67;4.27;;;;;;;-141.59;100.00;61776.25;5047696;28;20210;-85
2022/03/15 06:41:34;;;;;;;6.13;4.47;;;;;;;-141.59;100.00;61776.25;5032109;28;20230;-87
2022/03/15 06:44:01;;;;;;;7.30;3.97;;;;;;;-141.59;100.00;61776.25;5025254;28;20234;-87
2022/03/15 06:46:30;;;;;;;5.80;3.93;;;;;;;-141.59;100.00;61776.25;5036992;28;20205;-84
2022/03/15 06:48:57;;;;;;;6.97;4.13;;;;;;;-141.59;100.00;61776.25;5044757;28;20321;-86
2022/03/15 06:51:24;;;;;;;4.93;3.60;;;;;;;-141.59;100.00;61776.25;5038875;28;20301;-84
2022/03/15 06:53:52;;;;;;;4.40;3.37;;;;;;;-141.59;100.00;61776.25;5040065;28;20309;-86
2022/03/15 06:56:21;;;;;;;10.07;4.33;;;;;;;-141.59;100.00;61776.25;5020598;28;20233;-86
2022/03/15 06:58:49;;;;;;;5.90;3.90;;;;;;;-141.59;100.00;61776.25;5028239;28;20209;-85
2022/03/15 07:01:16;;;;;;;4.83;3.63;;;;;;;-141.59;100.00;61776.25;5027989;28;20212;-85
2022/03/15 07:03:44;;;;;;;5.37;3.00;;;;;;;-141.59;100.00;61776.25;5037701;28;20211;-86
2022/03/15 07:06:12;;;;;;;6.53;4.00;;;;;;;-141.59;100.00;61776.25;5024420;28;20202;-86
2022/03/15 07:08:39;;;;;;;5.00;3.67;;;;;;;-141.59;100.00;61776.25;5028732;28;20293;-85
2022/03/15 07:11:06;;;;;;;6.93;5.07;;;;;;;-141.59;100.00;61776.25;5021264;28;20217;-85
2022/03/15 07:13:35;;;;;;;9.47;4.70;;;;;;;-141.59;100.00;61776.25;5040517;28;20229;-82
2022/03/15 07:16:02;;;;;;;6.17;3.80;;;;;;;-141.59;100.00;61776.25;5025047;28;20219;-85
2022/03/15 07:18:30;;;;;;;5.13;3.77;;;;;;;-141.59;100.00;61776.25;5030768;28;20198;-85
2022/03/15 07:20:57;;;;;;;6.60;3.40;;;;;;;-141.59;100.00;61776.25;5025371;28;20203;-84
2022/03/15 07:23:24;;;;;;;12.37;5.10;;;;;;;-141.59;100.00;61776.25;5025946;28;20233;-84
2022/03/15 07:25:51;;;;;;;8.43;4.53;;;;;;;-141.59;100.00;61776.25;5022730;28;20233;-84
2022/03/15 07:28:19;;;;;;;5.47;3.73;;;;;;;-141.59;100.00;61776.25;5028503;28;20345;-85
2022/03/15 07:30:48;;;;;;;7.27;3.97;;;;;;;-141.59;100.00;61776.25;5029055;28;20288;-85
2022/03/15 07:33:15;;;;;;;6.60;4.40;;;;;;;-141.59;100.00;61776.25;5030261;28;20232;-85
2022/03/15 07:35:42;;;;;;;7.13;4.13;;;;;;;-141.59;100.00;61776.25;5049164;28;20214;-85
2022/03/15 07:38:09;;;;;;;6.07;3.70;;;;;;;-141.59;100.00;61776.25;5023832;28;20267;-84
2022/03/15 07:40:39;;;;;;;5.70;3.77;;;;;;;-141.59;100.00;61776.25;5040853;28;20285;-84
2022/03/15 07:43:07;;;;;;;7.43;3.60;;;;;;;-141.59;100.00;61776.25;5031417;28;20293;-84
2022/03/15 07:45:34;;;;;;;5.37;3.63;;;;;;;-141.59;100.00;61776.25;5031158;28;20279;-83
2022/03/15 07:48:04;;;;;;;6.23;3.67;;;;;;;-141.59;100.00;61776.25;5026096;28;20284;-83
2022/03/15 07:50:32;;;;;;;7.70;4.00;;;;;;;-141.59;100.00;61776.25;5021783;28;20278;-84
2022/03/15 07:52:59;;;;;;;5.53;4.20;;;;;;;-141.59;100.00;61776.25;5028482;28;20222;-85
2022/03/15 07:55:26;;;;;;;4.53;3.30;;;;;;;-141.59;100.00;61776.25;5042690;28;20293;-84
2022/03/15 07:57:53;;;;;;;3.20;1.00;;;;;;;-141.59;100.00;61776.25;5023213;28;20230;-84
2022/03/15 08:00:21;;;;;;;10.27;0.80;;;;;;;-141.59;100.00;61776.25;5021474;28;20210;-84
2022/03/15 08:02:48;;;;;;;1.10;0.70;;;;;;;-141.59;100.00;61776.25;5026014;28;20217;-85
2022/03/15 08:05:16;;;;;;;0.70;0.70;;;;;;;-141.59;100.00;61776.25;5039279;28;20213;-84
2022/03/15 08:07:44;;;;;;;2.10;0.80;;;;;;;-141.59;100.00;61776.25;5022331;28;20217;-83
2022/03/15 08:10:12;;;;;;;1.77;0.90;;;;;;;-141.59;100.00;61776.25;5026436;28;20214;-83
2022/03/15 08:12:40;;;;;;;1.67;0.70;;;;;;;-141.59;100.00;61776.25;5019183;28;20230;-83
2022/03/15 08:15:09;;;;;;;0.80;0.70;;;;;;;-141.59;100.00;61776.25;5039362;28;20225;-82
2022/03/15 08:17:37;;;;;;;0.97;0.80;;;;;;;-141.59;100.00;61776.25;5028714;28;20212;-84
2022/03/15 08:20:06;;;;;;;1.83;0.70;;;;;;;-141.59;100.00;61776.25;5027246;28;20210;-82
2022/03/15 08:22:35;;;;;;;2.60;0.60;;;;;;;-141.59;100.00;61776.25;5028564;28;20256;-85
2022/03/15 08:25:05;;;;;;;2.63;0.80;;;;;;;-141.59;100.00;61776.25;5029288;28;20218;-84
2022/03/15 08:27:33;;;;;;;1.03;0.53;;;;;;;-141.59;100.00;61776.25;5046186;28;20239;-83
2022/03/15 08:30:00;;;;;;;0.60;0.60;;;;;;;-141.59;100.00;61776.25;5030584;28;20222;-85
2022/03/15 08:32:27;;;;;;;2.57;0.87;;;;;;;-141.59;100.00;61776.25;5052606;28;20214;-85
2022/03/15 08:34:55;;;;;;;0.80;0.80;;;;;;;-141.59;100.00;61776.25;5034476;28;20313;-83
2022/03/15 08:37:22;;;;;;;3.80;0.90;;;;;;;-141.59;100.00;61776.25;5044213;28;20212;-84
2022/03/15 08:39:51;;;;;;;0.57;0.57;;;;;;;-141.59;100.00;61776.25;5023876;28;20221;-84
2022/03/15 08:42:18;;;;;;;2.00;0.60;;;;;;;-141.59;100.00;61776.25;5031648;28;20198;-84
2022/03/15 08:44:45;;;;;;;0.80;0.70;;;;;;;-141.59;100.00;61776.25;5056351;28;20253;-84
2022/03/15 08:47:14;;;;;;;1.13;0.60;;;;;;;-141.59;100.00;61776.25;5032754;28;20206;-86
2022/03/15 08:49:43;;;;;;;2.73;0.90;;;;;;;-141.59;100.00;61776.25;5050290;28;20300;-84
2022/03/15 08:52:11;;;;;;;1.57;0.60;;;;;;;-141.59;100.00;61776.25;5031080;28;20210;-87
2022/03/15 08:54:38;;;;;;;0.60;0.60;;;;;;;-141.59;100.00;61776.25;5028281;28;20222;-82
2022/03/15 08:57:08;;;;;;;2.77;0.60;;;;;;;-141.59;100.00;61776.25;5034957;28;20214;-85
2022/03/15 08:59:35;;;;;;;1.87;0.60;;;;;;;-141.59;100.00;61776.25;5043203;28;20288;-86
2022/03/15 09:02:03;;;;;;;0.57;0.57;;;;;;;-141.59;100.00;61776.25;5032344;28;20227;-86
2022/03/15 09:04:30;;;;;;;1.53;0.80;;;;;;;-141.59;100.00;61776.25;5033073;28;20194;-85
2022/03/15 09:06:57;;;;;;;0.63;0.63;;;;;;;-141.59;100.00;61776.25;5023200;28;20213;-86
2022/03/15 09:09:25;;;;;;;0.50;0.50;;;;;;;-141.59;100.00;61776.25;5032792;28;20202;-85
2022/03/15 09:11:52;;;;;;;1.13;0.73;;;;;;;-141.59;100.00;61776.25;5021952;28;20502;-84
2022/03/15 09:14:21;;;;;;;2.33;0.60;;;;;;;-141.59;100.00;61776.25;5027794;28;20225;-84
2022/03/15 09:16:48;;;;;;;3.37;0.70;;;;;;;-141.59;100.00;61776.25;5035857;28;20206;-85
2022/03/15 09:19:15;;;;;;;3.40;0.73;;;;;;;-141.59;100.00;61776.25;5048658;28;20214;-86
2022/03/15 09:21:43;;;;;;;1.30;0.70;;;;;;;-141.59;100.00;61776.25;5030167;28;20211;-85
2022/03/15 09:24:10;;;;;;;3.80;0.70;;;;;;;-141.59;100.00;61776.25;5022548;28;20222;-86
2022/03/15 09:26:41;;;;;;;0.63;0.63;;;;;;;-141.59;100.00;61776.25;5027863;28;20210;-86
2022/03/15 09:29:09;;;;;;;1.57;0.60;;;;;;;-141.59;100.00;61776.25;5026991;28;20214;-86
2022/03/15 09:31:38;;;;;;;0.80;0.80;;;;;;;-141.59;100.00;61776.25;5022872;28;20198;-86
2022/03/15 09:34:05;;;;;;;0.60;0.60;;;;;;;-141.59;100.00;61776.25;5027833;28;20230;-86
2022/03/15 09:36:32;;;;;;;0.63;0.63;;;;;;;-141.59;100.00;61776.25;5031913;28;20293;-85
2022/03/15 09:39:00;;;;;;;1.57;0.60;;;;;;;-141.59;100.00;61776.25;5042127;28;20275;-86
2022/03/15 09:41:28;;;;;;;3.40;0.60;;;;;;;-141.59;100.00;61776.25;5041301;28;20221;-85
2022/03/15 09:44:00;;;;;;;1.80;0.70;;;;;;;-141.59;100.00;61776.25;5023619;28;20289;-86
2022/03/15 09:46:29;;;;;;;2.60;0.80;;;;;;;-141.59;100.00;61776.25;5038888;28;20193;-86
2022/03/15 09:48:59;;;;;;;4.20;0.70;;;;;;;-141.59;100.00;61776.25;5040259;28;20256;-85
2022/03/15 09:51:32;;;;;;;2.40;0.70;;;;;;;-141.59;100.00;61776.25;5040159;28;20208;-86
2022/03/15 09:54:00;;;;;;;3.80;0.60;;;;;;;-141.59;100.00;61776.25;5044449;28;20210;-86
2022/03/15 09:56:28;;;;;;;0.77;0.63;;;;;;;-141.59;100.00;61776.25;5030360;28;20203;-84
2022/03/15 09:58:55;;;;;;;4.90;0.60;;;;;;;-141.59;100.00;61776.25;5044244;28;20207;-84
2022/03/15 10:01:22;;;;;;;4.13;0.70;;;;;;;-141.59;100.00;61776.25;5048762;28;20212;-85
2022/03/15 10:03:50;;;;;;;0.70;0.50;;;;;;;-141.59;100.00;61776.25;5027348;28;20205;-85
2022/03/15 10:06:20;;;;;;;0.53;0.53;;;;;;;-141.59;100.00;61776.25;5038255;28;20202;-86
2022/03/15 10:08:48;;;;;;;1.27;0.60;;;;;;;-141.59;100.00;61776.25;5037781;28;20292;-85
2022/03/15 10:11:18;;;;;;;2.40;1.00;;;;;;;-141.59;100.00;61776.25;5036755;28;20309;-86
2022/03/15 10:13:46;;;;;;;0.97;0.70;;;;;;;-141.59;100.00;61776.25;5038656;28;20209;-86
2022/03/15 10:16:14;;;;;;;1.43;0.77;;;;;;;-141.59;100.00;61776.25;5030808;28;20206;-86
2022/03/15 10:18:53;;;;;;;4.50;0.70;;;;;;;-141.59;100.00;61776.25;5048977;28;20206;-85
2022/03/15 10:21:25;;;;;;;2.45;0.70;;;;;;;-141.59;100.00;61776.25;5045739;28;20479;-84
2022/03/15 10:23:55;;;;;;;1.57;0.50;;;;;;;14.38;nan;97088.44;5038457;28;20222;-83
2022/03/15 10:26:24;;;;;;;1.63;0.80;;;;;;;14.28;nan;97070.03;5042067;28;20257;-83
2022/03/15 10:28:53;;;;;;;2.53;0.60;;;;;;;14.12;nan;97091.63;5023736;28;20301;-85
2022/03/15 10:31:22;;;;;;;5.93;1.20;;;;;;;14.14;nan;97094.91;5017923;28;20206;-86
2022/03/15 10:33:51;;;;;;;4.57;0.97;;;;;;;13.97;nan;97101.03;5020428;28;20209;-86
2022/03/15 10:36:19;;;;;;;1.50;0.80;;;;;;;14.06;nan;97098.81;5045302;28;20281;-84
2022/03/15 10:38:48;;;;;;;4.00;0.67;;;;;;;13.93;nan;97094.44;5023109;28;20298;-83
2022/03/15 10:41:16;;;;;;;2.17;0.60;;;;;;;13.93;nan;97101.75;5022744;28;20278;-85
2022/03/15 10:43:43;;;;;;;10.63;1.00;;;;;;;13.87;nan;97106.22;5043984;28;20237;-85
2022/03/15 10:46:13;;;;;;;2.97;0.70;;;;;;;13.85;nan;97097.50;5046785;28;20232;-84
2022/03/15 10:48:41;;;;;;;5.27;0.80;;;;;;;13.93;nan;97088.19;5021594;28;20202;-84
2022/03/15 10:51:14;;;;;;;1.57;0.80;;;;;;;13.78;nan;97079.66;5029034;28;20296;-86
2022/03/15 10:53:42;;;;;;;0.70;0.70;;;;;;;13.77;nan;97086.97;5039294;28;20243;-83
2022/03/15 10:56:15;;;;;;;6.87;1.10;;;;;;;13.67;nan;97083.16;5027743;28;20230;-84
2022/03/15 10:58:48;;;;;;;6.87;0.83;;;;;;;13.59;nan;97104.16;5020927;28;20217;-83
2022/03/15 11:01:18;;;;;;;1.97;0.80;;;;;;;13.55;nan;97085.81;5055649;28;20226;-84
2022/03/15 11:03:56;;;;;;;0.77;0.60;;;;;;;13.55;nan;97099.38;5020597;28;20283;-84
2022/03/15 11:06:31;;;;;;;0.73;0.70;;;;;;;13.53;nan;97099.63;5030501;28;20194;-84
2022/03/15 11:08:59;;;;;;;3.90;0.67;;;;;;;13.51;nan;97090.06;5030248;28;20194;-84
2022/03/15 11:11:28;;;;;;;6.33;0.73;;;;;;;13.33;nan;97077.38;5023280;28;20277;-85
2022/03/15 11:14:04;;;;;;;3.63;0.90;;;;;;;13.38;nan;97085.66;5024261;28;20206;-86
2022/03/15 11:16:36;;;;;;;2.50;0.70;;;;;;;13.36;nan;97038.94;5026615;28;20212;-85
2022/03/15 11:19:05;;;;;;;1.00;0.60;;;;;;;13.53;nan;97053.50;5029857;28;20285;-86